Terminal Aerodrome Forecast
Issued by NWS

Home | Current Version | Previous Version | Text Only | Print | Product List | Glossary On
Versions: 1 2 3 4 5 6 7 8 9 10 11 12 13 14 15 16 17 18 19 20 21 22
647
FTUS43 KDLH 120837 AAA
TAFHYR
TAF AMD
KHYR 120837Z 1209/1306 30009G16KT P6SM OVC035
      TEMPO 1209/1211 BKN027
     FM121100 31010G19KT P6SM SCT030
     FM121500 32010G17KT P6SM SCT035
     FM122300 32008KT P6SM SKC=

USA.gov is the U.S. government's official web portal to all federal, state and local government web resources and services.